sensor_id;sensor_type;location;lat;lon;timestamp;pressure;altitude;pressure_sealevel;temperature;humidity
61908;BME280;47864;52.526;19.672;2023-01-29T00:00:49;101869.00;;;-0.74;100.00
61908;BME280;47864;52.526;19.672;2023-01-29T00:02:51;101858.91;;;-0.57;100.00
61908;BME280;47864;52.526;19.672;2023-01-29T00:04:52;101858.22;;;-0.62;100.00
61908;BME280;47864;52.526;19.672;2023-01-29T00:06:59;101845.19;;;-0.62;100.00
61908;BME280;47864;52.526;19.672;2023-01-29T00:09:00;101844.88;;;-0.79;100.00
61908;BME280;47864;52.526;19.672;2023-01-29T00:11:03;101841.78;;;-0.64;100.00
61908;BME280;47864;52.526;19.672;2023-01-29T00:13:05;101830.41;;;-0.61;100.00
61908;BME280;47864;52.526;19.672;2023-01-29T00:15:06;101797.53;;;-0.65;100.00
61908;BME280;47864;52.526;19.672;2023-01-29T00:17:08;101831.88;;;-0.53;100.00
61908;BME280;47864;52.526;19.672;2023-01-29T00:19:10;101829.88;;;-0.72;100.00
61908;BME280;47864;52.526;19.672;2023-01-29T00:21:14;101825.97;;;-0.58;100.00
61908;BME280;47864;52.526;19.672;2023-01-29T00:23:16;101827.47;;;-0.51;100.00
61908;BME280;47864;52.526;19.672;2023-01-29T00:25:17;101810.31;;;-0.58;100.00
61908;BME280;47864;52.526;19.672;2023-01-29T00:27:19;101829.84;;;-0.71;100.00
61908;BME280;47864;52.526;19.672;2023-01-29T00:29:21;101831.63;;;-0.73;100.00
61908;BME280;47864;52.526;19.672;2023-01-29T00:31:24;101824.34;;;-0.62;100.00
61908;BME280;47864;52.526;19.672;2023-01-29T00:33:27;101831.34;;;-0.64;100.00
61908;BME280;47864;52.526;19.672;2023-01-29T00:35:29;101822.94;;;-0.72;100.00
61908;BME280;47864;52.526;19.672;2023-01-29T00:37:31;101821.38;;;-0.78;100.00
61908;BME280;47864;52.526;19.672;2023-01-29T00:39:32;101821.22;;;-0.73;100.00
61908;BME280;47864;52.526;19.672;2023-01-29T00:41:48;101819.06;;;-0.87;100.00
61908;BME280;47864;52.526;19.672;2023-01-29T00:43:49;101793.78;;;-1.11;100.00
61908;BME280;47864;52.526;19.672;2023-01-29T00:45:51;101803.47;;;-0.88;100.00
61908;BME280;47864;52.526;19.672;2023-01-29T00:47:52;101818.00;;;-0.81;100.00
61908;BME280;47864;52.526;19.672;2023-01-29T00:49:54;101817.72;;;-0.72;100.00
61908;BME280;47864;52.526;19.672;2023-01-29T00:51:56;101813.03;;;-0.61;100.00
61908;BME280;47864;52.526;19.672;2023-01-29T00:53:57;101812.28;;;-0.66;100.00
61908;BME280;47864;52.526;19.672;2023-01-29T00:55:59;101803.41;;;-0.59;100.00
61908;BME280;47864;52.526;19.672;2023-01-29T00:58:00;101804.00;;;-0.51;100.00
61908;BME280;47864;52.526;19.672;2023-01-29T01:00:04;101801.06;;;-0.66;100.00
61908;BME280;47864;52.526;19.672;2023-01-29T01:02:07;101780.38;;;-0.72;100.00
61908;BME280;47864;52.526;19.672;2023-01-29T01:04:10;101791.66;;;-0.72;100.00
61908;BME280;47864;52.526;19.672;2023-01-29T01:06:12;101789.31;;;-0.80;100.00
61908;BME280;47864;52.526;19.672;2023-01-29T01:08:13;101792.13;;;-0.86;100.00
61908;BME280;47864;52.526;19.672;2023-01-29T01:10:22;101787.84;;;-0.88;100.00
61908;BME280;47864;52.526;19.672;2023-01-29T01:12:23;101790.03;;;-0.74;100.00
61908;BME280;47864;52.526;19.672;2023-01-29T01:14:25;101788.66;;;-0.86;100.00
61908;BME280;47864;52.526;19.672;2023-01-29T01:16:27;101788.94;;;-0.95;100.00
61908;BME280;47864;52.526;19.672;2023-01-29T01:18:30;101771.66;;;-0.98;100.00
61908;BME280;47864;52.526;19.672;2023-01-29T01:20:33;101776.63;;;-0.90;100.00
61908;BME280;47864;52.526;19.672;2023-01-29T01:22:35;101731.00;;;-1.02;100.00
61908;BME280;47864;52.526;19.672;2023-01-29T01:24:37;101763.47;;;-0.86;100.00
61908;BME280;47864;52.526;19.672;2023-01-29T01:26:38;101768.97;;;-0.95;100.00
61908;BME280;47864;52.526;19.672;2023-01-29T01:28:40;101744.47;;;-1.16;100.00
61908;BME280;47864;52.526;19.672;2023-01-29T01:30:42;101774.47;;;-1.04;100.00
61908;BME280;47864;52.526;19.672;2023-01-29T01:32:43;101754.75;;;-1.11;100.00
61908;BME280;47864;52.526;19.672;2023-01-29T01:34:45;101773.78;;;-1.09;100.00
61908;BME280;47864;52.526;19.672;2023-01-29T01:36:47;101777.06;;;-1.04;100.00
61908;BME280;47864;52.526;19.672;2023-01-29T01:38:48;101786.13;;;-1.16;100.00
61908;BME280;47864;52.526;19.672;2023-01-29T01:40:50;101784.31;;;-1.13;100.00
61908;BME280;47864;52.526;19.672;2023-01-29T01:42:53;101801.69;;;-1.14;100.00
61908;BME280;47864;52.526;19.672;2023-01-29T01:45:00;101797.03;;;-1.04;100.00
61908;BME280;47864;52.526;19.672;2023-01-29T01:47:02;101797.03;;;-1.04;100.00
61908;BME280;47864;52.526;19.672;2023-01-29T01:49:15;101800.50;;;-1.04;100.00
61908;BME280;47864;52.526;19.672;2023-01-29T01:51:20;101801.69;;;-1.14;100.00
61908;BME280;47864;52.526;19.672;2023-01-29T01:53:33;101793.81;;;-1.12;100.00
61908;BME280;47864;52.526;19.672;2023-01-29T01:55:41;101779.50;;;-1.26;100.00
61908;BME280;47864;52.526;19.672;2023-01-29T01:57:51;101770.22;;;-1.34;100.00
61908;BME280;47864;52.526;19.672;2023-01-29T01:59:59;101802.22;;;-1.03;100.00
61908;BME280;47864;52.526;19.672;2023-01-29T02:02:02;101801.56;;;-1.09;100.00
61908;BME280;47864;52.526;19.672;2023-01-29T02:04:11;101792.41;;;-1.23;100.00
61908;BME280;47864;52.526;19.672;2023-01-29T02:06:15;101754.59;;;-1.34;100.00
61908;BME280;47864;52.526;19.672;2023-01-29T02:08:42;101797.81;;;-1.01;100.00
61908;BME280;47864;52.526;19.672;2023-01-29T02:10:46;101773.53;;;-1.01;100.00
61908;BME280;47864;52.526;19.672;2023-01-29T02:12:49;101784.50;;;-0.92;100.00
61908;BME280;47864;52.526;19.672;2023-01-29T02:14:51;101773.78;;;-1.09;100.00
61908;BME280;47864;52.526;19.672;2023-01-29T02:16:53;101772.81;;;-1.06;100.00
61908;BME280;47864;52.526;19.672;2023-01-29T02:18:55;101764.56;;;-1.21;100.00
61908;BME280;47864;52.526;19.672;2023-01-29T02:35:45;101757.91;;;-1.57;100.00
61908;BME280;47864;52.526;19.672;2023-01-29T02:40:08;101754.97;;;-1.46;100.00
61908;BME280;47864;52.526;19.672;2023-01-29T02:42:17;101740.06;;;-1.71;100.00
61908;BME280;47864;52.526;19.672;2023-01-29T02:44:36;101757.28;;;-1.65;100.00
61908;BME280;47864;52.526;19.672;2023-01-29T02:46:51;101707.25;;;-2.04;100.00
61908;BME280;47864;52.526;19.672;2023-01-29T02:49:03;101755.72;;;-1.72;100.00
61908;BME280;47864;52.526;19.672;2023-01-29T02:53:40;101743.94;;;-1.84;100.00
61908;BME280;47864;52.526;19.672;2023-01-29T02:58:06;101737.22;;;-1.91;100.00
61908;BME280;47864;52.526;19.672;2023-01-29T03:00:15;101751.97;;;-1.92;100.00
61908;BME280;47864;52.526;19.672;2023-01-29T03:02:29;101751.78;;;-1.85;100.00
61908;BME280;47864;52.526;19.672;2023-01-29T03:04:36;101751.75;;;-1.84;100.00
61908;BME280;47864;52.526;19.672;2023-01-29T03:06:47;101721.47;;;-1.86;100.00
61908;BME280;47864;52.526;19.672;2023-01-29T03:09:09;101746.69;;;-1.59;100.00
61908;BME280;47864;52.526;19.672;2023-01-29T03:11:12;101731.88;;;-1.57;100.00
61908;BME280;47864;52.526;19.672;2023-01-29T03:13:31;101735.84;;;-1.45;100.00
61908;BME280;47864;52.526;19.672;2023-01-29T03:15:43;101736.91;;;-1.51;100.00
61908;BME280;47864;52.526;19.672;2023-01-29T03:18:11;101732.59;;;-1.52;100.00
61908;BME280;47864;52.526;19.672;2023-01-29T03:20:16;101727.06;;;-1.41;100.00
61908;BME280;47864;52.526;19.672;2023-01-29T03:22:20;101730.53;;;-1.41;100.00
61908;BME280;47864;52.526;19.672;2023-01-29T03:24:41;101735.56;;;-1.36;100.00
61908;BME280;47864;52.526;19.672;2023-01-29T03:26:45;101733.00;;;-1.38;100.00
61908;BME280;47864;52.526;19.672;2023-01-29T03:28:46;101708.00;;;-1.42;100.00
61908;BME280;47864;52.526;19.672;2023-01-29T03:30:53;101724.78;;;-1.24;100.00
61908;BME280;47864;52.526;19.672;2023-01-29T03:32:56;101730.44;;;-1.39;100.00
61908;BME280;47864;52.526;19.672;2023-01-29T03:35:02;101722.59;;;-1.38;100.00
61908;BME280;47864;52.526;19.672;2023-01-29T03:37:45;101716.47;;;-1.35;100.00
61908;BME280;47864;52.526;19.672;2023-01-29T03:39:45;101704.91;;;-1.55;100.00
61908;BME280;47864;52.526;19.672;2023-01-29T03:41:53;101717.59;;;-1.44;100.00
61908;BME280;47864;52.526;19.672;2023-01-29T03:52:55;101717.84;;;-1.51;100.00
61908;BME280;47864;52.526;19.672;2023-01-29T03:55:11;101710.88;;;-1.51;100.00
61908;BME280;47864;52.526;19.672;2023-01-29T04:00:05;101700.50;;;-1.52;100.00
61908;BME280;47864;52.526;19.672;2023-01-29T04:02:15;101695.47;;;-1.57;100.00
61908;BME280;47864;52.526;19.672;2023-01-29T04:04:29;101700.84;;;-1.63;100.00
61908;BME280;47864;52.526;19.672;2023-01-29T04:06:34;101706.22;;;-1.69;100.00
61908;BME280;47864;52.526;19.672;2023-01-29T04:08:47;101690.34;;;-1.60;100.00
61908;BME280;47864;52.526;19.672;2023-01-29T04:10:51;101683.59;;;-1.66;100.00
61908;BME280;47864;52.526;19.672;2023-01-29T04:13:01;101650.91;;;-2.04;100.00
61908;BME280;47864;52.526;19.672;2023-01-29T04:15:08;101682.00;;;-1.71;100.00
61908;BME280;47864;52.526;19.672;2023-01-29T04:17:14;101680.13;;;-1.66;100.00
61908;BME280;47864;52.526;19.672;2023-01-29T04:19:18;101678.00;;;-1.54;100.00
61908;BME280;47864;52.526;19.672;2023-01-29T04:21:19;101677.25;;;-1.57;100.00
61908;BME280;47864;52.526;19.672;2023-01-29T04:23:24;101675.06;;;-1.43;100.00
61908;BME280;47864;52.526;19.672;2023-01-29T04:25:29;101674.19;;;-1.42;100.00
61908;BME280;47864;52.526;19.672;2023-01-29T04:34:30;101679.41;;;-1.16;100.00
61908;BME280;47864;52.526;19.672;2023-01-29T04:36:40;101651.72;;;-1.46;100.00
61908;BME280;47864;52.526;19.672;2023-01-29T04:39:07;101668.75;;;-1.36;100.00
61908;BME280;47864;52.526;19.672;2023-01-29T04:41:23;101663.28;;;-1.27;100.00
61908;BME280;47864;52.526;19.672;2023-01-29T04:43:37;101664.31;;;-1.32;100.00
61908;BME280;47864;52.526;19.672;2023-01-29T04:54:51;101654.19;;;-1.15;100.00
61908;BME280;47864;52.526;19.672;2023-01-29T04:59:14;101655.16;;;-1.18;100.00
61908;BME280;47864;52.526;19.672;2023-01-29T05:01:18;101645.22;;;-1.06;100.00
61908;BME280;47864;52.526;19.672;2023-01-29T05:03:23;101624.63;;;-1.12;100.00
61908;BME280;47864;52.526;19.672;2023-01-29T05:05:26;101638.81;;;-0.96;100.00
61908;BME280;47864;52.526;19.672;2023-01-29T05:07:29;101628.13;;;-0.89;100.00
61908;BME280;47864;52.526;19.672;2023-01-29T05:09:32;101623.16;;;-0.95;100.00
61908;BME280;47864;52.526;19.672;2023-01-29T05:11:35;101609.59;;;-1.04;100.00
61908;BME280;47864;52.526;19.672;2023-01-29T05:13:38;101627.28;;;-0.89;100.00
61908;BME280;47864;52.526;19.672;2023-01-29T05:17:50;101619.53;;;-0.91;100.00
61908;BME280;47864;52.526;19.672;2023-01-29T05:19:51;101621.53;;;-0.99;100.00
61908;BME280;47864;52.526;19.672;2023-01-29T05:21:53;101617.44;;;-1.06;100.00
61908;BME280;47864;52.526;19.672;2023-01-29T05:26:16;101612.09;;;-1.01;100.00
61908;BME280;47864;52.526;19.672;2023-01-29T05:28:18;101576.88;;;-1.38;100.00
61908;BME280;47864;52.526;19.672;2023-01-29T05:30:19;101599.13;;;-1.03;100.00
61908;BME280;47864;52.526;19.672;2023-01-29T05:32:21;101594.22;;;-1.12;100.00
61908;BME280;47864;52.526;19.672;2023-01-29T05:34:22;101586.50;;;-1.15;100.00
61908;BME280;47864;52.526;19.672;2023-01-29T05:36:24;101566.75;;;-1.21;100.00
61908;BME280;47864;52.526;19.672;2023-01-29T05:38:25;101571.63;;;-1.36;100.00
61908;BME280;47864;52.526;19.672;2023-01-29T05:40:27;101585.81;;;-1.20;100.00
61908;BME280;47864;52.526;19.672;2023-01-29T05:42:28;101573.56;;;-1.17;100.00
61908;BME280;47864;52.526;19.672;2023-01-29T05:44:30;101578.69;;;-1.15;100.00
61908;BME280;47864;52.526;19.672;2023-01-29T05:46:32;101581.47;;;-1.20;100.00
61908;BME280;47864;52.526;19.672;2023-01-29T05:48:33;101589.91;;;-1.13;100.00
61908;BME280;47864;52.526;19.672;2023-01-29T05:50:35;101594.75;;;-1.02;100.00
61908;BME280;47864;52.526;19.672;2023-01-29T05:52:37;101601.50;;;-1.22;100.00
61908;BME280;47864;52.526;19.672;2023-01-29T05:54:38;101604.38;;;-1.04;100.00
61908;BME280;47864;52.526;19.672;2023-01-29T05:56:40;101602.97;;;-1.15;100.00
61908;BME280;47864;52.526;19.672;2023-01-29T05:58:41;101590.09;;;-1.18;100.00
61908;BME280;47864;52.526;19.672;2023-01-29T06:00:43;101561.72;;;-1.25;100.00
61908;BME280;47864;52.526;19.672;2023-01-29T06:02:44;101611.47;;;-1.08;100.00
61908;BME280;47864;52.526;19.672;2023-01-29T06:04:46;101609.75;;;-1.09;100.00
61908;BME280;47864;52.526;19.672;2023-01-29T06:06:47;101592.75;;;-1.19;100.00
61908;BME280;47864;52.526;19.672;2023-01-29T06:08:49;101575.38;;;-1.19;100.00
61908;BME280;47864;52.526;19.672;2023-01-29T06:10:51;101573.75;;;-1.23;100.00
61908;BME280;47864;52.526;19.672;2023-01-29T06:12:52;101605.09;;;-0.99;100.00
61908;BME280;47864;52.526;19.672;2023-01-29T06:14:54;101588.16;;;-1.12;100.00
61908;BME280;47864;52.526;19.672;2023-01-29T06:16:56;101615.59;;;-1.02;100.00
61908;BME280;47864;52.526;19.672;2023-01-29T06:18:57;101582.16;;;-1.15;100.00
61908;BME280;47864;52.526;19.672;2023-01-29T06:21:03;101608.84;;;-1.08;100.00
61908;BME280;47864;52.526;19.672;2023-01-29T06:23:05;101612.31;;;-1.07;100.00
61908;BME280;47864;52.526;19.672;2023-01-29T06:25:07;101454.72;;;-1.92;100.00
61908;BME280;47864;52.526;19.672;2023-01-29T06:27:08;101591.66;;;-1.13;100.00
61908;BME280;47864;52.526;19.672;2023-01-29T06:29:10;101605.19;;;-1.02;100.00
61908;BME280;47864;52.526;19.672;2023-01-29T06:31:12;101602.84;;;-0.85;100.00
61908;BME280;47864;52.526;19.672;2023-01-29T06:33:33;101595.72;;;-1.05;100.00
61908;BME280;47864;52.526;19.672;2023-01-29T06:35:35;101567.69;;;-1.23;100.00
61908;BME280;47864;52.526;19.672;2023-01-29T06:37:36;101588.88;;;-1.07;100.00
61908;BME280;47864;52.526;19.672;2023-01-29T06:39:38;101616.50;;;-0.79;100.00
61908;BME280;47864;52.526;19.672;2023-01-29T06:41:40;101612.91;;;-0.99;100.00
61908;BME280;47864;52.526;19.672;2023-01-29T06:43:44;101570.31;;;-0.98;100.00
61908;BME280;47864;52.526;19.672;2023-01-29T06:45:51;101604.84;;;-0.68;100.00
61908;BME280;47864;52.526;19.672;2023-01-29T06:47:54;101604.91;;;-0.95;100.00
61908;BME280;47864;52.526;19.672;2023-01-29T06:49:56;101596.88;;;-0.89;100.00
61908;BME280;47864;52.526;19.672;2023-01-29T06:51:58;101599.97;;;-1.02;100.00
61908;BME280;47864;52.526;19.672;2023-01-29T06:54:00;101609.50;;;-1.01;100.00
61908;BME280;47864;52.526;19.672;2023-01-29T06:56:02;101604.50;;;-0.83;100.00
61908;BME280;47864;52.526;19.672;2023-01-29T06:58:08;101607.25;;;-0.87;100.00
61908;BME280;47864;52.526;19.672;2023-01-29T07:00:10;101604.88;;;-0.93;100.00
61908;BME280;47864;52.526;19.672;2023-01-29T07:02:12;101598.84;;;-0.95;100.00
61908;BME280;47864;52.526;19.672;2023-01-29T07:04:13;101614.53;;;-0.97;100.00
61908;BME280;47864;52.526;19.672;2023-01-29T07:06:15;101616.09;;;-0.91;100.00
61908;BME280;47864;52.526;19.672;2023-01-29T07:08:17;101606.56;;;-0.92;100.00
61908;BME280;47864;52.526;19.672;2023-01-29T07:10:19;101617.84;;;-0.92;100.00
61908;BME280;47864;52.526;19.672;2023-01-29T07:12:20;101596.34;;;-0.98;100.00
61908;BME280;47864;52.526;19.672;2023-01-29T07:14:22;101619.38;;;-0.86;100.00
61908;BME280;47864;52.526;19.672;2023-01-29T07:16:23;101615.44;;;-0.98;100.00
61908;BME280;47864;52.526;19.672;2023-01-29T07:18:27;101609.63;;;-0.81;100.00
61908;BME280;47864;52.526;19.672;2023-01-29T07:20:30;101614.47;;;-0.95;100.00
61908;BME280;47864;52.526;19.672;2023-01-29T07:22:31;101622.88;;;-0.87;100.00
61908;BME280;47864;52.526;19.672;2023-01-29T07:24:33;101610.34;;;-1.01;100.00
61908;BME280;47864;52.526;19.672;2023-01-29T07:26:34;101620.84;;;-1.04;100.00
61908;BME280;47864;52.526;19.672;2023-01-29T07:28:37;101614.63;;;-1.25;100.00
61908;BME280;47864;52.526;19.672;2023-01-29T07:30:39;101626.63;;;-1.21;100.00
61908;BME280;47864;52.526;19.672;2023-01-29T07:32:40;101620.72;;;-1.26;100.00
61908;BME280;47864;52.526;19.672;2023-01-29T07:34:42;101606.31;;;-1.36;100.00
61908;BME280;47864;52.526;19.672;2023-01-29T07:36:43;101614.47;;;-1.20;100.00
61908;BME280;47864;52.526;19.672;2023-01-29T07:38:48;101620.56;;;-1.21;100.00
61908;BME280;47864;52.526;19.672;2023-01-29T07:40:52;101614.50;;;-1.22;100.00
61908;BME280;47864;52.526;19.672;2023-01-29T07:42:58;101611.72;;;-1.42;100.00
61908;BME280;47864;52.526;19.672;2023-01-29T07:45:00;101618.31;;;-1.32;100.00
61908;BME280;47864;52.526;19.672;2023-01-29T07:47:01;101611.34;;;-1.31;100.00
61908;BME280;47864;52.526;19.672;2023-01-29T07:49:03;101614.31;;;-1.16;100.00
61908;BME280;47864;52.526;19.672;2023-01-29T07:51:04;101589.44;;;-1.24;100.00
61908;BME280;47864;52.526;19.672;2023-01-29T07:53:11;101610.88;;;-1.16;100.00
61908;BME280;47864;52.526;19.672;2023-01-29T07:55:14;101599.44;;;-1.12;100.00
61908;BME280;47864;52.526;19.672;2023-01-29T07:57:15;101599.97;;;-1.02;100.00
61908;BME280;47864;52.526;19.672;2023-01-29T07:59:16;101611.34;;;-1.05;100.00
61908;BME280;47864;52.526;19.672;2023-01-29T08:01:18;101550.00;;;-1.38;100.00
61908;BME280;47864;52.526;19.672;2023-01-29T08:03:20;101607.47;;;-1.18;100.00
61908;BME280;47864;52.526;19.672;2023-01-29T08:05:21;101569.66;;;-1.30;100.00
61908;BME280;47864;52.526;19.672;2023-01-29T08:07:23;101535.88;;;-1.31;100.00
61908;BME280;47864;52.526;19.672;2023-01-29T08:09:25;101590.91;;;-0.91;100.00
61908;BME280;47864;52.526;19.672;2023-01-29T08:11:26;101585.44;;;-1.08;100.00
61908;BME280;47864;52.526;19.672;2023-01-29T08:13:28;101606.16;;;-1.06;100.00
61908;BME280;47864;52.526;19.672;2023-01-29T08:15:30;101591.88;;;-1.20;100.00
61908;BME280;47864;52.526;19.672;2023-01-29T08:17:31;101580.31;;;-1.11;100.00
61908;BME280;47864;52.526;19.672;2023-01-29T08:19:33;101581.53;;;-0.96;100.00
61908;BME280;47864;52.526;19.672;2023-01-29T08:21:34;101606.38;;;-0.63;100.00
61908;BME280;47864;52.526;19.672;2023-01-29T08:23:36;101589.84;;;-0.62;100.00
61908;BME280;47864;52.526;19.672;2023-01-29T08:25:38;101590.69;;;-0.61;100.00
61908;BME280;47864;52.526;19.672;2023-01-29T08:27:40;101610.38;;;-0.53;100.00
61908;BME280;47864;52.526;19.672;2023-01-29T08:29:41;101601.88;;;-0.58;100.00
61908;BME280;47864;52.526;19.672;2023-01-29T08:31:43;101601.94;;;-0.59;100.00
61908;BME280;47864;52.526;19.672;2023-01-29T08:33:45;101609.69;;;-0.58;100.00
61908;BME280;47864;52.526;19.672;2023-01-29T08:35:50;101611.38;;;-0.82;100.00
61908;BME280;47864;52.526;19.672;2023-01-29T08:37:57;101608.88;;;-0.60;100.00
61908;BME280;47864;52.526;19.672;2023-01-29T08:39:58;101595.03;;;-0.85;100.00
61908;BME280;47864;52.526;19.672;2023-01-29T08:42:00;101546.09;;;-1.25;100.00
61908;BME280;47864;52.526;19.672;2023-01-29T08:44:02;101608.94;;;-0.86;100.00
61908;BME280;47864;52.526;19.672;2023-01-29T08:46:04;101588.63;;;-1.00;100.00
61908;BME280;47864;52.526;19.672;2023-01-29T08:48:06;101604.00;;;-0.69;100.00
61908;BME280;47864;52.526;19.672;2023-01-29T08:50:09;101592.63;;;-0.66;100.00
61908;BME280;47864;52.526;19.672;2023-01-29T08:52:11;101594.63;;;-0.50;100.00
61908;BME280;47864;52.526;19.672;2023-01-29T08:54:12;101596.53;;;-0.55;100.00
61908;BME280;47864;52.526;19.672;2023-01-29T08:56:15;101591.16;;;-0.50;100.00
61908;BME280;47864;52.526;19.672;2023-01-29T08:58:17;101586.44;;;-0.41;100.00
61908;BME280;47864;52.526;19.672;2023-01-29T09:00:19;101576.97;;;-0.20;100.00
61908;BME280;47864;52.526;19.672;2023-01-29T09:02:21;101547.81;;;-0.53;100.00
61908;BME280;47864;52.526;19.672;2023-01-29T09:04:22;101532.84;;;-0.48;100.00
61908;BME280;47864;52.526;19.672;2023-01-29T09:06:24;101548.00;;;-0.34;100.00
61908;BME280;47864;52.526;19.672;2023-01-29T09:08:25;101533.25;;;-0.82;100.00
61908;BME280;47864;52.526;19.672;2023-01-29T09:10:27;101569.69;;;-0.57;100.00
61908;BME280;47864;52.526;19.672;2023-01-29T09:12:28;101565.66;;;-0.65;100.00
61908;BME280;47864;52.526;19.672;2023-01-29T09:14:30;101543.84;;;-0.63;100.00
61908;BME280;47864;52.526;19.672;2023-01-29T09:16:32;101552.38;;;-0.58;100.00
61908;BME280;47864;52.526;19.672;2023-01-29T09:18:33;101559.38;;;-0.36;100.00
61908;BME280;47864;52.526;19.672;2023-01-29T09:20:35;101540.66;;;-0.48;100.00
61908;BME280;47864;52.526;19.672;2023-01-29T09:22:36;101542.88;;;-0.37;100.00
61908;BME280;47864;52.526;19.672;2023-01-29T09:24:38;101559.06;;;-0.51;100.00
61908;BME280;47864;52.526;19.672;2023-01-29T09:26:40;101552.13;;;-0.28;100.00
61908;BME280;47864;52.526;19.672;2023-01-29T09:28:41;101528.34;;;-0.21;100.00
61908;BME280;47864;52.526;19.672;2023-01-29T09:30:43;101546.75;;;-0.02;100.00
61908;BME280;47864;52.526;19.672;2023-01-29T09:32:46;101541.59;;;-0.04;100.00
61908;BME280;47864;52.526;19.672;2023-01-29T09:34:54;101540.97;;;-0.10;100.00
61908;BME280;47864;52.526;19.672;2023-01-29T09:36:55;101525.09;;;-0.26;100.00
61908;BME280;47864;52.526;19.672;2023-01-29T09:38:57;101542.69;;;-0.09;100.00
61908;BME280;47864;52.526;19.672;2023-01-29T09:43:15;101549.31;;;-0.01;100.00
61908;BME280;47864;52.526;19.672;2023-01-29T09:45:24;101514.63;;;-0.48;100.00
61908;BME280;47864;52.526;19.672;2023-01-29T09:47:27;101532.41;;;-0.35;100.00
61908;BME280;47864;52.526;19.672;2023-01-29T09:49:31;101537.66;;;-0.37;100.00
61908;BME280;47864;52.526;19.672;2023-01-29T09:52:04;101541.69;;;-0.28;100.00
61908;BME280;47864;52.526;19.672;2023-01-29T09:54:30;101536.47;;;-0.28;100.00
61908;BME280;47864;52.526;19.672;2023-01-29T09:56:34;101537.63;;;-0.35;100.00
61908;BME280;47864;52.526;19.672;2023-01-29T09:58:37;101539.53;;;-0.41;100.00
61908;BME280;47864;52.526;19.672;2023-01-29T10:03:22;101541.16;;;-0.60;100.00
61908;BME280;47864;52.526;19.672;2023-01-29T10:05:56;101524.44;;;-0.54;100.00
61908;BME280;47864;52.526;19.672;2023-01-29T10:15:04;101525.59;;;-0.40;100.00
61908;BME280;47864;52.526;19.672;2023-01-29T10:17:28;101513.59;;;-0.44;100.00
61908;BME280;47864;52.526;19.672;2023-01-29T10:22:31;101514.03;;;-0.32;100.00
61908;BME280;47864;52.526;19.672;2023-01-29T10:24:56;101519.94;;;-0.27;100.00
61908;BME280;47864;52.526;19.672;2023-01-29T10:26:59;101505.78;;;-0.44;100.00
61908;BME280;47864;52.526;19.672;2023-01-29T10:29:05;101514.66;;;-0.26;100.00
61908;BME280;47864;52.526;19.672;2023-01-29T10:31:14;101509.84;;;-0.15;100.00
61908;BME280;47864;52.526;19.672;2023-01-29T10:33:30;101512.47;;;-0.15;100.00
61908;BME280;47864;52.526;19.672;2023-01-29T10:35:58;101512.72;;;-0.21;100.00
61908;BME280;47864;52.526;19.672;2023-01-29T10:40:33;101505.31;;;-0.10;100.00
61908;BME280;47864;52.526;19.672;2023-01-29T10:42:43;101507.44;;;-0.19;100.00
61908;BME280;47864;52.526;19.672;2023-01-29T10:47:09;101499.78;;;-0.24;100.00
61908;BME280;47864;52.526;19.672;2023-01-29T10:49:48;101490.75;;;-0.37;100.00
61908;BME280;47864;52.526;19.672;2023-01-29T10:54:30;101478.72;;;-0.18;100.00
61908;BME280;47864;52.526;19.672;2023-01-29T10:56:46;101469.25;;;-0.20;100.00
61908;BME280;47864;52.526;19.672;2023-01-29T10:59:03;101485.91;;;-0.24;100.00
61908;BME280;47864;52.526;19.672;2023-01-29T11:01:10;101465.72;;;-0.19;100.00
61908;BME280;47864;52.526;19.672;2023-01-29T11:03:13;101478.81;;;-0.21;100.00
61908;BME280;47864;52.526;19.672;2023-01-29T11:05:35;101464.88;;;-0.20;100.00
61908;BME280;47864;52.526;19.672;2023-01-29T11:07:41;101468.19;;;-0.16;100.00
61908;BME280;47864;52.526;19.672;2023-01-29T11:09:49;101471.16;;;-0.04;100.00
61908;BME280;47864;52.526;19.672;2023-01-29T11:12:02;101461.53;;;-0.02;100.00
61908;BME280;47864;52.526;19.672;2023-01-29T11:14:29;101435.81;;;-0.32;100.00
61908;BME280;47864;52.526;19.672;2023-01-29T11:16:42;101456.41;;;-0.25;100.00
61908;BME280;47864;52.526;19.672;2023-01-29T11:18:51;101461.31;;;-0.17;100.00
61908;BME280;47864;52.526;19.672;2023-01-29T11:21:02;101455.47;;;-0.24;100.00
61908;BME280;47864;52.526;19.672;2023-01-29T11:23:04;101455.78;;;-0.31;100.00
61908;BME280;47864;52.526;19.672;2023-01-29T11:25:21;101463.59;;;-0.31;100.00
61908;BME280;47864;52.526;19.672;2023-01-29T11:27:25;101454.47;;;-0.42;100.00
61908;BME280;47864;52.526;19.672;2023-01-29T11:29:44;101422.19;;;-0.61;100.00
61908;BME280;47864;52.526;19.672;2023-01-29T11:31:46;101437.88;;;-0.41;100.00
61908;BME280;47864;52.526;19.672;2023-01-29T11:33:51;101444.34;;;-0.27;100.00
61908;BME280;47864;52.526;19.672;2023-01-29T11:35:53;101430.19;;;-0.22;100.00
61908;BME280;47864;52.526;19.672;2023-01-29T11:38:05;101383.66;;;-0.53;100.00
61908;BME280;47864;52.526;19.672;2023-01-29T11:42:29;101427.53;;;-0.20;100.00
61908;BME280;47864;52.526;19.672;2023-01-29T11:46:40;101417.91;;;-0.18;100.00
61908;BME280;47864;52.526;19.672;2023-01-29T11:48:47;101405.75;;;-0.19;100.00
61908;BME280;47864;52.526;19.672;2023-01-29T11:50:57;101404.94;;;-0.42;100.00
61908;BME280;47864;52.526;19.672;2023-01-29T11:53:00;101400.16;;;-0.52;100.00
61908;BME280;47864;52.526;19.672;2023-01-29T11:55:17;101386.03;;;-0.47;100.00
61908;BME280;47864;52.526;19.672;2023-01-29T11:57:33;101399.84;;;-0.45;100.00
61908;BME280;47864;52.526;19.672;2023-01-29T11:59:40;101397.41;;;-0.27;100.00
61908;BME280;47864;52.526;19.672;2023-01-29T12:01:42;101375.22;;;-0.38;100.00